sensor_id;sensor_type;location;lat;lon;timestamp;pressure;altitude;pressure_sealevel;temperature;humidity
65280;BME280;51878;55.748;48.742;2023-04-20T00:00:58;99696.44;;;6.00;100.00
65280;BME280;51878;55.748;48.742;2023-04-20T00:06:02;99754.53;;;6.21;100.00
65280;BME280;51878;55.748;48.742;2023-04-20T00:11:04;99566.56;;;5.07;100.00
65280;BME280;51878;55.748;48.742;2023-04-20T00:16:07;99751.97;;;6.19;100.00
65280;BME280;51878;55.748;48.742;2023-04-20T00:21:11;99621.84;;;5.37;100.00
65280;BME280;51878;55.748;48.742;2023-04-20T00:26:14;99712.00;;;5.97;100.00
65280;BME280;51878;55.748;48.742;2023-04-20T00:31:17;99635.25;;;5.47;100.00
65280;BME280;51878;55.748;48.742;2023-04-20T00:36:19;99497.50;;;4.52;100.00
65280;BME280;51878;55.748;48.742;2023-04-20T00:41:22;99685.63;;;5.73;100.00
65280;BME280;51878;55.748;48.742;2023-04-20T00:46:24;99750.03;;;6.12;100.00
65280;BME280;51878;55.748;48.742;2023-04-20T00:51:27;99673.53;;;5.59;100.00
65280;BME280;51878;55.748;48.742;2023-04-20T00:56:30;99596.94;;;5.08;100.00
65280;BME280;51878;55.748;48.742;2023-04-20T01:01:32;99675.53;;;5.57;100.00
65280;BME280;51878;55.748;48.742;2023-04-20T01:06:34;99697.59;;;5.61;100.00
65280;BME280;51878;55.748;48.742;2023-04-20T01:11:37;99722.13;;;5.85;100.00
65280;BME280;51878;55.748;48.742;2023-04-20T01:16:39;99619.66;;;5.23;100.00
65280;BME280;51878;55.748;48.742;2023-04-20T01:21:42;99690.50;;;5.59;100.00
65280;BME280;51878;55.748;48.742;2023-04-20T01:26:44;99688.28;;;5.55;100.00
65280;BME280;51878;55.748;48.742;2023-04-20T01:31:46;99715.53;;;5.70;100.00
65280;BME280;51878;55.748;48.742;2023-04-20T01:36:48;99651.31;;;5.29;100.00
65280;BME280;51878;55.748;48.742;2023-04-20T01:41:53;99518.03;;;4.34;100.00
65280;BME280;51878;55.748;48.742;2023-04-20T01:46:57;99720.91;;;5.70;100.00
65280;BME280;51878;55.748;48.742;2023-04-20T01:52:00;99642.75;;;5.16;100.00
65280;BME280;51878;55.748;48.742;2023-04-20T01:57:02;99698.78;;;5.48;100.00
65280;BME280;51878;55.748;48.742;2023-04-20T02:02:04;99628.63;;;5.14;100.00
65280;BME280;51878;55.748;48.742;2023-04-20T02:07:07;99649.03;;;5.34;100.00
65280;BME280;51878;55.748;48.742;2023-04-20T02:12:09;99688.38;;;5.63;100.00
65280;BME280;51878;55.748;48.742;2023-04-20T02:17:11;99705.66;;;5.88;100.00
65280;BME280;51878;55.748;48.742;2023-04-20T02:22:14;99669.84;;;5.88;100.00
65280;BME280;51878;55.748;48.742;2023-04-20T02:27:17;99696.91;;;6.14;100.00
65280;BME280;51878;55.748;48.742;2023-04-20T02:32:19;99709.44;;;6.23;100.00
65280;BME280;51878;55.748;48.742;2023-04-20T02:37:21;99655.53;;;5.87;100.00
65280;BME280;51878;55.748;48.742;2023-04-20T02:42:23;99646.78;;;5.85;100.00
65280;BME280;51878;55.748;48.742;2023-04-20T02:47:25;99689.75;;;6.23;100.00
65280;BME280;51878;55.748;48.742;2023-04-20T02:52:27;99587.16;;;5.62;100.00
65280;BME280;51878;55.748;48.742;2023-04-20T02:57:30;99664.13;;;6.18;100.00
65280;BME280;51878;55.748;48.742;2023-04-20T03:02:32;99717.00;;;6.37;100.00
65280;BME280;51878;55.748;48.742;2023-04-20T03:07:34;99704.59;;;6.09;100.00
65280;BME280;51878;55.748;48.742;2023-04-20T03:12:36;99636.38;;;5.72;100.00
65280;BME280;51878;55.748;48.742;2023-04-20T03:17:38;99642.38;;;5.84;100.00
65280;BME280;51878;55.748;48.742;2023-04-20T03:22:41;99661.44;;;6.00;100.00
65280;BME280;51878;55.748;48.742;2023-04-20T03:27:45;99633.69;;;6.00;100.00
65280;BME280;51878;55.748;48.742;2023-04-20T03:32:47;99682.16;;;6.36;100.00
65280;BME280;51878;55.748;48.742;2023-04-20T03:37:49;99648.84;;;6.19;100.00
65280;BME280;51878;55.748;48.742;2023-04-20T03:42:53;99698.22;;;6.63;100.00
65280;BME280;51878;55.748;48.742;2023-04-20T03:47:55;99531.19;;;5.75;100.00
65280;BME280;51878;55.748;48.742;2023-04-20T03:52:57;99679.03;;;6.85;100.00
65280;BME280;51878;55.748;48.742;2023-04-20T03:57:59;99700.34;;;7.22;100.00
65280;BME280;51878;55.748;48.742;2023-04-20T04:03:01;99633.16;;;7.02;100.00
65280;BME280;51878;55.748;48.742;2023-04-20T04:08:05;99659.72;;;7.58;98.04
65280;BME280;51878;55.748;48.742;2023-04-20T04:13:08;99644.69;;;7.98;95.94
65280;BME280;51878;55.748;48.742;2023-04-20T04:18:10;99694.47;;;8.62;91.20
65280;BME280;51878;55.748;48.742;2023-04-20T04:23:12;99610.34;;;8.49;88.89
65280;BME280;51878;55.748;48.742;2023-04-20T04:28:14;99662.13;;;9.18;83.29
65280;BME280;51878;55.748;48.742;2023-04-20T04:33:17;99654.81;;;9.35;82.32
65280;BME280;51878;55.748;48.742;2023-04-20T04:38:20;99593.66;;;9.18;78.08
65280;BME280;51878;55.748;48.742;2023-04-20T04:43:22;99562.19;;;9.25;76.03
65280;BME280;51878;55.748;48.742;2023-04-20T04:48:25;99531.72;;;9.31;75.90
65280;BME280;51878;55.748;48.742;2023-04-20T04:53:27;99673.56;;;10.47;74.15
65280;BME280;51878;55.748;48.742;2023-04-20T04:58:29;99642.88;;;10.54;71.62
65280;BME280;51878;55.748;48.742;2023-04-20T05:03:31;99608.28;;;10.57;68.50
65280;BME280;51878;55.748;48.742;2023-04-20T05:08:34;99572.59;;;10.68;68.55
65280;BME280;51878;55.748;48.742;2023-04-20T05:13:36;99580.28;;;11.24;66.06
65280;BME280;51878;55.748;48.742;2023-04-20T05:18:38;99596.34;;;11.70;62.96
65280;BME280;51878;55.748;48.742;2023-04-20T05:23:40;99653.94;;;12.31;60.90
65280;BME280;51878;55.748;48.742;2023-04-20T05:28:42;99648.22;;;12.48;58.26
65280;BME280;51878;55.748;48.742;2023-04-20T05:33:44;99587.63;;;12.32;57.96
65280;BME280;51878;55.748;48.742;2023-04-20T05:38:47;99461.00;;;11.52;56.88
65280;BME280;51878;55.748;48.742;2023-04-20T05:43:49;99607.84;;;12.45;56.26
65280;BME280;51878;55.748;48.742;2023-04-20T05:48:51;99590.81;;;12.36;55.80
65280;BME280;51878;55.748;48.742;2023-04-20T05:53:53;99562.44;;;12.17;55.26
65280;BME280;51878;55.748;48.742;2023-04-20T05:58:56;99635.47;;;12.70;54.90
65280;BME280;51878;55.748;48.742;2023-04-20T06:04:01;99656.09;;;12.79;54.59
65280;BME280;51878;55.748;48.742;2023-04-20T06:09:04;99472.88;;;11.72;53.56
65280;BME280;51878;55.748;48.742;2023-04-20T06:14:06;99577.41;;;12.84;53.71
65280;BME280;51878;55.748;48.742;2023-04-20T06:19:09;99603.81;;;13.53;51.98
65280;BME280;51878;55.748;48.742;2023-04-20T06:24:14;99579.44;;;13.87;50.01
65280;BME280;51878;55.748;48.742;2023-04-20T06:29:16;99627.41;;;14.42;47.44
65280;BME280;51878;55.748;48.742;2023-04-20T06:34:18;99555.22;;;14.38;46.56
65280;BME280;51878;55.748;48.742;2023-04-20T06:39:22;99623.03;;;15.28;45.29
65280;BME280;51878;55.748;48.742;2023-04-20T06:44:25;99631.53;;;15.72;43.63
65280;BME280;51878;55.748;48.742;2023-04-20T06:49:27;99568.63;;;15.78;42.31
65280;BME280;51878;55.748;48.742;2023-04-20T06:54:29;99544.81;;;16.24;42.64
65280;BME280;51878;55.748;48.742;2023-04-20T06:59:31;99563.75;;;16.50;41.49
65280;BME280;51878;55.748;48.742;2023-04-20T07:04:36;99499.91;;;16.82;39.68
65280;BME280;51878;55.748;48.742;2023-04-20T07:09:38;99543.25;;;17.47;37.89
65280;BME280;51878;55.748;48.742;2023-04-20T07:14:41;99544.31;;;17.64;36.45
65280;BME280;51878;55.748;48.742;2023-04-20T07:19:43;99549.97;;;18.00;36.05
65280;BME280;51878;55.748;48.742;2023-04-20T07:24:45;99494.44;;;17.86;34.85
65280;BME280;51878;55.748;48.742;2023-04-20T07:29:47;99587.00;;;18.51;35.04
65280;BME280;51878;55.748;48.742;2023-04-20T07:34:49;99602.16;;;18.42;34.90
65280;BME280;51878;55.748;48.742;2023-04-20T07:39:51;99383.50;;;17.09;34.34
65280;BME280;51878;55.748;48.742;2023-04-20T07:44:54;99489.97;;;18.03;33.21
65280;BME280;51878;55.748;48.742;2023-04-20T07:49:56;99570.41;;;18.57;33.58
65280;BME280;51878;55.748;48.742;2023-04-20T07:54:58;99406.94;;;17.66;33.35
65280;BME280;51878;55.748;48.742;2023-04-20T08:00:06;99524.47;;;18.11;33.53
65280;BME280;51878;55.748;48.742;2023-04-20T08:05:09;99580.50;;;18.03;34.37
65280;BME280;51878;55.748;48.742;2023-04-20T08:10:12;99511.69;;;17.56;34.86
65280;BME280;51878;55.748;48.742;2023-04-20T08:15:14;99573.31;;;17.90;36.00
65280;BME280;51878;55.748;48.742;2023-04-20T08:20:17;99552.44;;;17.52;35.96
65280;BME280;51878;55.748;48.742;2023-04-20T08:25:19;99529.81;;;17.02;36.58
65280;BME280;51878;55.748;48.742;2023-04-20T08:30:21;99482.13;;;16.66;36.37
65280;BME280;51878;55.748;48.742;2023-04-20T08:35:23;99559.06;;;17.08;36.35
65280;BME280;51878;55.748;48.742;2023-04-20T08:40:26;99532.63;;;16.95;36.62
65280;BME280;51878;55.748;48.742;2023-04-20T08:45:29;99459.31;;;16.53;36.39
65280;BME280;51878;55.748;48.742;2023-04-20T08:50:31;99500.31;;;17.22;35.50
65280;BME280;51878;55.748;48.742;2023-04-20T08:55:34;99480.97;;;17.17;35.02
65280;BME280;51878;55.748;48.742;2023-04-20T09:00:47;99452.31;;;17.50;34.73
65280;BME280;51878;55.748;48.742;2023-04-20T09:05:50;99526.38;;;18.64;33.87
65280;BME280;51878;55.748;48.742;2023-04-20T09:10:52;99525.91;;;19.03;32.58
65280;BME280;51878;55.748;48.742;2023-04-20T09:15:54;99503.88;;;19.38;31.81
65280;BME280;51878;55.748;48.742;2023-04-20T09:21:09;99438.03;;;19.60;30.57
65280;BME280;51878;55.748;48.742;2023-04-20T09:26:16;99384.91;;;20.05;29.17
65280;BME280;51878;55.748;48.742;2023-04-20T09:31:20;99472.97;;;21.51;28.88
65280;BME280;51878;55.748;48.742;2023-04-20T09:36:23;99529.91;;;22.06;27.70
65280;BME280;51878;55.748;48.742;2023-04-20T09:41:27;99479.09;;;21.14;27.73
65280;BME280;51878;55.748;48.742;2023-04-20T09:46:30;99510.31;;;21.58;27.10
65280;BME280;51878;55.748;48.742;2023-04-20T09:51:35;99495.94;;;21.34;25.72
65280;BME280;51878;55.748;48.742;2023-04-20T09:56:39;99500.78;;;21.44;26.15
65280;BME280;51878;55.748;48.742;2023-04-20T10:01:42;99494.69;;;21.25;26.02
65280;BME280;51878;55.748;48.742;2023-04-20T10:06:54;99450.66;;;21.30;25.59
65280;BME280;51878;55.748;48.742;2023-04-20T10:12:08;99479.09;;;21.36;26.00
65280;BME280;51878;55.748;48.742;2023-04-20T10:17:16;99412.78;;;20.59;25.93
65280;BME280;51878;55.748;48.742;2023-04-20T10:22:29;99457.59;;;21.82;25.79
65280;BME280;51878;55.748;48.742;2023-04-20T10:27:34;99442.09;;;22.78;24.64
65280;BME280;51878;55.748;48.742;2023-04-20T10:32:36;99279.66;;;23.21;23.04
65280;BME280;51878;55.748;48.742;2023-04-20T10:37:51;99409.84;;;24.85;21.31
65280;BME280;51878;55.748;48.742;2023-04-20T10:42:53;99454.78;;;25.62;20.90
65280;BME280;51878;55.748;48.742;2023-04-20T10:48:04;99397.03;;;25.98;21.19
65280;BME280;51878;55.748;48.742;2023-04-20T10:53:22;99362.50;;;25.70;20.45
65280;BME280;51878;55.748;48.742;2023-04-20T10:58:24;99344.03;;;25.01;21.08
65280;BME280;51878;55.748;48.742;2023-04-20T11:03:28;99312.25;;;24.72;21.80
65280;BME280;51878;55.748;48.742;2023-04-20T11:08:38;99423.91;;;25.64;20.90
65280;BME280;51878;55.748;48.742;2023-04-20T11:13:41;99363.56;;;25.80;20.71
65280;BME280;51878;55.748;48.742;2023-04-20T11:18:51;99335.94;;;26.57;19.87
65280;BME280;51878;55.748;48.742;2023-04-20T11:23:53;99403.72;;;26.90;19.86
65280;BME280;51878;55.748;48.742;2023-04-20T11:28:55;99361.00;;;27.24;19.37
65280;BME280;51878;55.748;48.742;2023-04-20T11:33:57;99386.13;;;26.71;18.34
65280;BME280;51878;55.748;48.742;2023-04-20T11:39:09;99373.88;;;27.39;18.87
65280;BME280;51878;55.748;48.742;2023-04-20T11:44:13;99314.59;;;26.71;19.43
65280;BME280;51878;55.748;48.742;2023-04-20T11:49:16;99324.41;;;26.39;19.45
65280;BME280;51878;55.748;48.742;2023-04-20T11:54:18;99311.56;;;27.54;18.74
65280;BME280;51878;55.748;48.742;2023-04-20T11:59:20;99297.63;;;26.92;18.68
65280;BME280;51878;55.748;48.742;2023-04-20T12:04:23;99284.69;;;27.96;18.58
65280;BME280;51878;55.748;48.742;2023-04-20T12:09:25;99222.22;;;27.31;17.53
65280;BME280;51878;55.748;48.742;2023-04-20T12:14:28;99319.09;;;28.19;16.88
65280;BME280;51878;55.748;48.742;2023-04-20T12:19:30;99305.06;;;28.24;17.42
65280;BME280;51878;55.748;48.742;2023-04-20T12:24:33;99270.50;;;28.67;17.65
65280;BME280;51878;55.748;48.742;2023-04-20T12:29:35;99288.88;;;27.93;18.07
65280;BME280;51878;55.748;48.742;2023-04-20T12:34:37;99173.72;;;26.37;18.97
65280;BME280;51878;55.748;48.742;2023-04-20T12:39:39;99322.28;;;28.59;17.99
65280;BME280;51878;55.748;48.742;2023-04-20T12:44:41;99318.47;;;27.56;18.24
65280;BME280;51878;55.748;48.742;2023-04-20T12:49:43;99244.03;;;27.24;18.58
65280;BME280;51878;55.748;48.742;2023-04-20T12:54:45;99310.38;;;26.98;18.97
65280;BME280;51878;55.748;48.742;2023-04-20T12:59:48;99265.03;;;26.01;19.31
65280;BME280;51878;55.748;48.742;2023-04-20T13:04:51;99116.72;;;24.25;19.73
65280;BME280;51878;55.748;48.742;2023-04-20T13:09:53;99291.66;;;24.84;20.43
65280;BME280;51878;55.748;48.742;2023-04-20T13:14:55;99297.81;;;24.70;20.60
65280;BME280;51878;55.748;48.742;2023-04-20T13:19:58;99298.41;;;24.62;20.70
65280;BME280;51878;55.748;48.742;2023-04-20T13:25:00;99300.22;;;23.66;21.91
65280;BME280;51878;55.748;48.742;2023-04-20T13:30:04;99238.63;;;22.77;21.96
65280;BME280;51878;55.748;48.742;2023-04-20T13:35:08;99274.38;;;23.04;22.45
65280;BME280;51878;55.748;48.742;2023-04-20T13:40:13;99215.78;;;21.81;23.02
65280;BME280;51878;55.748;48.742;2023-04-20T13:45:15;99195.53;;;21.00;23.83
65280;BME280;51878;55.748;48.742;2023-04-20T13:50:17;99260.13;;;20.38;25.02
65280;BME280;51878;55.748;48.742;2023-04-20T13:55:20;99255.75;;;19.81;25.61
65280;BME280;51878;55.748;48.742;2023-04-20T14:00:22;99275.00;;;19.65;25.81
65280;BME280;51878;55.748;48.742;2023-04-20T14:05:24;99242.16;;;19.58;26.08
65280;BME280;51878;55.748;48.742;2023-04-20T14:10:27;99212.81;;;19.13;26.41
65280;BME280;51878;55.748;48.742;2023-04-20T14:15:29;99170.00;;;18.83;26.32
65280;BME280;51878;55.748;48.742;2023-04-20T14:20:31;99220.63;;;19.04;26.06
65280;BME280;51878;55.748;48.742;2023-04-20T14:25:33;99244.91;;;18.78;26.40
65280;BME280;51878;55.748;48.742;2023-04-20T14:30:36;99136.69;;;17.82;26.48
65280;BME280;51878;55.748;48.742;2023-04-20T14:35:43;99193.91;;;18.02;27.04
65280;BME280;51878;55.748;48.742;2023-04-20T14:40:50;99208.84;;;17.82;27.38
65280;BME280;51878;55.748;48.742;2023-04-20T14:45:53;99033.50;;;16.58;27.85
65280;BME280;51878;55.748;48.742;2023-04-20T14:50:59;99189.97;;;17.62;28.38
65280;BME280;51878;55.748;48.742;2023-04-20T14:56:03;99236.81;;;18.20;28.36
65280;BME280;51878;55.748;48.742;2023-04-20T15:01:05;99222.97;;;18.26;27.78
65280;BME280;51878;55.748;48.742;2023-04-20T15:06:08;99222.28;;;17.72;28.28
65280;BME280;51878;55.748;48.742;2023-04-20T15:11:11;99016.41;;;16.20;28.67
65280;BME280;51878;55.748;48.742;2023-04-20T15:16:13;99190.31;;;16.77;29.14
65280;BME280;51878;55.748;48.742;2023-04-20T15:21:16;99159.34;;;16.16;29.59
65280;BME280;51878;55.748;48.742;2023-04-20T15:26:21;99246.50;;;16.30;30.56
65280;BME280;51878;55.748;48.742;2023-04-20T15:31:23;99107.72;;;15.15;30.90
65280;BME280;51878;55.748;48.742;2023-04-20T15:36:26;99208.84;;;15.52;31.28
65280;BME280;51878;55.748;48.742;2023-04-20T15:41:29;99139.31;;;14.79;31.83
65280;BME280;51878;55.748;48.742;2023-04-20T15:46:35;99249.25;;;15.18;32.13
65280;BME280;51878;55.748;48.742;2023-04-20T15:51:37;99208.81;;;14.77;32.74
65280;BME280;51878;55.748;48.742;2023-04-20T15:56:40;99112.44;;;14.06;32.85
65280;BME280;51878;55.748;48.742;2023-04-20T16:01:42;99096.66;;;13.83;32.95
65280;BME280;51878;55.748;48.742;2023-04-20T16:06:44;99021.81;;;13.34;33.06
65280;BME280;51878;55.748;48.742;2023-04-20T16:11:46;99189.97;;;14.23;32.86
65280;BME280;51878;55.748;48.742;2023-04-20T16:16:54;99128.09;;;13.79;33.22
65280;BME280;51878;55.748;48.742;2023-04-20T16:21:57;99179.81;;;13.92;33.54
65280;BME280;51878;55.748;48.742;2023-04-20T16:26:59;99239.06;;;14.23;33.99
65280;BME280;51878;55.748;48.742;2023-04-20T16:32:02;99046.84;;;12.77;34.44
65280;BME280;51878;55.748;48.742;2023-04-20T16:37:04;99251.78;;;13.71;35.01
65280;BME280;51878;55.748;48.742;2023-04-20T16:42:07;99233.16;;;13.21;35.60
65280;BME280;51878;55.748;48.742;2023-04-20T16:47:09;99294.81;;;12.68;44.81
65280;BME280;51878;55.748;48.742;2023-04-20T16:52:12;99224.91;;;11.44;47.69
65280;BME280;51878;55.748;48.742;2023-04-20T16:57:14;99222.50;;;11.27;49.50
65280;BME280;51878;55.748;48.742;2023-04-20T17:02:16;99202.91;;;11.32;49.99
65280;BME280;51878;55.748;48.742;2023-04-20T17:07:21;99260.31;;;11.57;50.56
65280;BME280;51878;55.748;48.742;2023-04-20T17:12:23;99152.34;;;10.96;51.62
65280;BME280;51878;55.748;48.742;2023-04-20T17:17:26;99263.44;;;11.54;53.34
65280;BME280;51878;55.748;48.742;2023-04-20T17:22:29;99259.84;;;11.47;52.74
65280;BME280;51878;55.748;48.742;2023-04-20T17:27:31;99200.66;;;11.07;53.64
65280;BME280;51878;55.748;48.742;2023-04-20T17:32:41;98990.03;;;9.72;54.46
65280;BME280;51878;55.748;48.742;2023-04-20T17:37:48;99161.84;;;10.42;58.72
65280;BME280;51878;55.748;48.742;2023-04-20T17:42:50;99179.00;;;10.28;61.20
65280;BME280;51878;55.748;48.742;2023-04-20T17:47:56;99114.50;;;9.65;64.12
65280;BME280;51878;55.748;48.742;2023-04-20T17:52:59;99144.63;;;9.77;63.65
65280;BME280;51878;55.748;48.742;2023-04-20T17:58:07;99083.38;;;9.25;63.56
65280;BME280;51878;55.748;48.742;2023-04-20T18:03:12;99135.41;;;9.71;61.74
65280;BME280;51878;55.748;48.742;2023-04-20T18:08:16;99037.78;;;9.22;59.71
65280;BME280;51878;55.748;48.742;2023-04-20T18:13:19;98960.25;;;8.78;59.97
65280;BME280;51878;55.748;48.742;2023-04-20T18:18:34;99197.59;;;10.16;61.63
65280;BME280;51878;55.748;48.742;2023-04-20T18:23:51;98988.47;;;8.90;62.31
65280;BME280;51878;55.748;48.742;2023-04-20T18:28:59;99070.50;;;9.42;62.28
65280;BME280;51878;55.748;48.742;2023-04-20T18:34:06;99198.25;;;10.18;62.47
65280;BME280;51878;55.748;48.742;2023-04-20T18:39:11;98923.13;;;8.42;62.73
65280;BME280;51878;55.748;48.742;2023-04-20T18:44:17;99038.97;;;9.34;62.19
65280;BME280;51878;55.748;48.742;2023-04-20T18:49:19;99169.66;;;10.16;62.44
65280;BME280;51878;55.748;48.742;2023-04-20T18:54:21;99095.03;;;9.77;61.44
65280;BME280;51878;55.748;48.742;2023-04-20T18:59:24;99188.59;;;10.45;59.70
65280;BME280;51878;55.748;48.742;2023-04-20T19:04:28;99215.94;;;10.50;61.38
65280;BME280;51878;55.748;48.742;2023-04-20T19:09:30;99195.69;;;10.46;59.28
65280;BME280;51878;55.748;48.742;2023-04-20T19:14:37;99152.19;;;10.33;58.82
65280;BME280;51878;55.748;48.742;2023-04-20T19:19:39;99170.13;;;10.55;58.44
65280;BME280;51878;55.748;48.742;2023-04-20T19:24:42;99056.31;;;9.76;58.94
65280;BME280;51878;55.748;48.742;2023-04-20T19:29:44;99128.63;;;10.33;58.09
65280;BME280;51878;55.748;48.742;2023-04-20T19:34:46;99121.22;;;10.42;56.82
65280;BME280;51878;55.748;48.742;2023-04-20T19:39:48;99194.00;;;10.88;56.89
65280;BME280;51878;55.748;48.742;2023-04-20T19:44:50;99148.56;;;10.69;55.76
65280;BME280;51878;55.748;48.742;2023-04-20T19:49:54;99164.34;;;10.87;53.98
65280;BME280;51878;55.748;48.742;2023-04-20T19:54:56;99150.59;;;10.88;53.49
65280;BME280;51878;55.748;48.742;2023-04-20T19:59:58;99098.69;;;10.63;52.60
65280;BME280;51878;55.748;48.742;2023-04-20T20:05:00;99176.28;;;11.14;52.18
65280;BME280;51878;55.748;48.742;2023-04-20T20:10:04;99194.53;;;10.99;55.38
65280;BME280;51878;55.748;48.742;2023-04-20T20:15:07;99171.03;;;10.26;63.97
65280;BME280;51878;55.748;48.742;2023-04-20T20:20:10;99192.31;;;9.93;67.71
65280;BME280;51878;55.748;48.742;2023-04-20T20:25:16;99172.75;;;9.61;66.70
65280;BME280;51878;55.748;48.742;2023-04-20T20:30:22;99187.31;;;9.60;69.16
65280;BME280;51878;55.748;48.742;2023-04-20T20:35:25;99184.69;;;9.52;71.11
65280;BME280;51878;55.748;48.742;2023-04-20T20:40:34;99190.66;;;9.47;69.80
65280;BME280;51878;55.748;48.742;2023-04-20T20:45:38;99192.91;;;9.59;68.37
65280;BME280;51878;55.748;48.742;2023-04-20T20:50:40;99162.75;;;9.47;67.12
65280;BME280;51878;55.748;48.742;2023-04-20T20:55:42;99138.03;;;9.50;66.34
65280;BME280;51878;55.748;48.742;2023-04-20T21:00:44;99123.31;;;9.52;64.17
65280;BME280;51878;55.748;48.742;2023-04-20T21:05:49;99132.88;;;9.70;63.40
65280;BME280;51878;55.748;48.742;2023-04-20T21:10:51;99152.94;;;9.90;61.52
65280;BME280;51878;55.748;48.742;2023-04-20T21:15:54;99054.84;;;9.37;61.10
65280;BME280;51878;55.748;48.742;2023-04-20T21:20:56;99060.66;;;9.56;60.19
65280;BME280;51878;55.748;48.742;2023-04-20T21:25:59;99075.59;;;9.66;59.67
65280;BME280;51878;55.748;48.742;2023-04-20T21:31:01;99129.28;;;9.99;58.56
65280;BME280;51878;55.748;48.742;2023-04-20T21:36:03;99121.81;;;10.01;58.37
65280;BME280;51878;55.748;48.742;2023-04-20T21:41:05;99107.53;;;9.92;58.19
65280;BME280;51878;55.748;48.742;2023-04-20T21:46:08;98894.16;;;8.65;56.96
65280;BME280;51878;55.748;48.742;2023-04-20T21:51:15;99139.28;;;10.20;55.89
65280;BME280;51878;55.748;48.742;2023-04-20T21:56:17;99145.09;;;10.32;56.23
65280;BME280;51878;55.748;48.742;2023-04-20T22:01:20;99063.84;;;9.81;57.03
65280;BME280;51878;55.748;48.742;2023-04-20T22:06:22;99126.44;;;10.07;57.70
65280;BME280;51878;55.748;48.742;2023-04-20T22:11:24;99108.84;;;9.97;58.01
65280;BME280;51878;55.748;48.742;2023-04-20T22:16:26;99082.81;;;9.81;58.20
65280;BME280;51878;55.748;48.742;2023-04-20T22:21:29;99121.34;;;9.98;59.14
65280;BME280;51878;55.748;48.742;2023-04-20T22:26:32;99133.16;;;10.11;59.11
65280;BME280;51878;55.748;48.742;2023-04-20T22:31:35;99078.34;;;9.88;58.16
65280;BME280;51878;55.748;48.742;2023-04-20T22:36:37;99088.66;;;9.99;57.84
65280;BME280;51878;55.748;48.742;2023-04-20T22:41:39;99022.97;;;9.54;57.90
65280;BME280;51878;55.748;48.742;2023-04-20T22:46:41;99106.84;;;10.05;57.75
65280;BME280;51878;55.748;48.742;2023-04-20T22:51:44;99123.19;;;10.12;57.93
65280;BME280;51878;55.748;48.742;2023-04-20T22:56:46;99065.66;;;9.73;57.96
65280;BME280;51878;55.748;48.742;2023-04-20T23:01:48;99074.44;;;9.76;58.19
65280;BME280;51878;55.748;48.742;2023-04-20T23:06:50;99045.28;;;9.41;59.25
65280;BME280;51878;55.748;48.742;2023-04-20T23:11:53;98903.31;;;8.50;59.78
65280;BME280;51878;55.748;48.742;2023-04-20T23:16:57;99108.31;;;9.71;60.28
65280;BME280;51878;55.748;48.742;2023-04-20T23:22:01;99043.44;;;9.27;60.98
65280;BME280;51878;55.748;48.742;2023-04-20T23:27:04;99058.00;;;9.26;61.64
65280;BME280;51878;55.748;48.742;2023-04-20T23:32:06;99090.56;;;9.33;62.54
65280;BME280;51878;55.748;48.742;2023-04-20T23:37:08;99085.25;;;9.24;62.82
65280;BME280;51878;55.748;48.742;2023-04-20T23:42:11;99085.06;;;9.11;63.60
65280;BME280;51878;55.748;48.742;2023-04-20T23:47:13;99035.41;;;8.59;64.56
65280;BME280;51878;55.748;48.742;2023-04-20T23:52:16;99068.34;;;8.78;65.72
65280;BME280;51878;55.748;48.742;2023-04-20T23:57:18;98988.59;;;8.29;65.71
